sensor_id;sensor_type;location;lat;lon;timestamp;pressure;altitude;pressure_sealevel;temperature;humidity
43155;BME280;34212;51.018;13.586;2023-02-20T00:03:26;98484.25;;;4.93;92.62
43155;BME280;34212;51.018;13.586;2023-02-20T00:08:28;98496.09;;;4.98;92.62
43155;BME280;34212;51.018;13.586;2023-02-20T00:13:29;98498.75;;;4.98;93.24
43155;BME280;34212;51.018;13.586;2023-02-20T00:18:31;98488.06;;;5.00;93.67
43155;BME280;34212;51.018;13.586;2023-02-20T00:23:32;98481.41;;;5.05;93.87
43155;BME280;34212;51.018;13.586;2023-02-20T00:28:37;98480.91;;;5.12;94.52
43155;BME280;34212;51.018;13.586;2023-02-20T00:33:39;98474.00;;;5.20;95.22
43155;BME280;34212;51.018;13.586;2023-02-20T00:38:43;98468.06;;;5.28;94.90
43155;BME280;34212;51.018;13.586;2023-02-20T00:43:45;98466.25;;;5.28;94.74
43155;BME280;34212;51.018;13.586;2023-02-20T00:48:46;98461.53;;;5.32;94.58
43155;BME280;34212;51.018;13.586;2023-02-20T00:54:08;98467.53;;;5.34;95.45
43155;BME280;34212;51.018;13.586;2023-02-20T00:59:09;98458.94;;;5.42;95.04
43155;BME280;34212;51.018;13.586;2023-02-20T01:04:11;98451.59;;;5.45;95.48
43155;BME280;34212;51.018;13.586;2023-02-20T01:09:15;98437.13;;;5.49;95.37
43155;BME280;34212;51.018;13.586;2023-02-20T01:14:17;98449.81;;;5.55;95.57
43155;BME280;34212;51.018;13.586;2023-02-20T01:19:20;98445.22;;;5.57;95.10
43155;BME280;34212;51.018;13.586;2023-02-20T01:24:22;98446.09;;;5.58;95.12
43155;BME280;34212;51.018;13.586;2023-02-20T01:29:23;98430.78;;;5.62;95.56
43155;BME280;34212;51.018;13.586;2023-02-20T01:34:25;98418.56;;;5.70;95.03
43155;BME280;34212;51.018;13.586;2023-02-20T01:39:29;98430.41;;;5.76;95.20
43155;BME280;34212;51.018;13.586;2023-02-20T01:44:34;98413.28;;;5.80;95.15
43155;BME280;34212;51.018;13.586;2023-02-20T01:49:39;98418.31;;;5.83;94.92
43155;BME280;34212;51.018;13.586;2023-02-20T01:54:43;98415.53;;;5.85;94.85
43155;BME280;34212;51.018;13.586;2023-02-20T01:59:48;98406.75;;;5.84;95.17
43155;BME280;34212;51.018;13.586;2023-02-20T02:04:50;98409.13;;;5.87;95.21
43155;BME280;34212;51.018;13.586;2023-02-20T02:09:59;98401.63;;;5.92;95.67
43155;BME280;34212;51.018;13.586;2023-02-20T02:15:08;98410.00;;;5.97;95.84
43155;BME280;34212;51.018;13.586;2023-02-20T02:20:46;98397.34;;;6.01;95.75
43155;BME280;34212;51.018;13.586;2023-02-20T02:31:45;98378.53;;;6.04;96.20
43155;BME280;34212;51.018;13.586;2023-02-20T02:52:16;98382.16;;;6.13;95.92
43155;BME280;34212;51.018;13.586;2023-02-20T02:57:38;98363.22;;;6.17;96.68
43155;BME280;34212;51.018;13.586;2023-02-20T03:07:53;98346.50;;;6.17;96.02
43155;BME280;34212;51.018;13.586;2023-02-20T03:13:01;98331.44;;;6.17;96.29
43155;BME280;34212;51.018;13.586;2023-02-20T03:18:28;98333.66;;;6.22;96.38
43155;BME280;34212;51.018;13.586;2023-02-20T03:23:35;98333.94;;;6.29;96.05
43155;BME280;34212;51.018;13.586;2023-02-20T03:28:41;98334.66;;;6.31;95.62
43155;BME280;34212;51.018;13.586;2023-02-20T03:33:49;98332.53;;;6.34;95.85
43155;BME280;34212;51.018;13.586;2023-02-20T03:39:17;98322.66;;;6.36;95.83
43155;BME280;34212;51.018;13.586;2023-02-20T03:44:39;98324.47;;;6.36;96.06
43155;BME280;34212;51.018;13.586;2023-02-20T03:49:44;98321.66;;;6.37;95.57
43155;BME280;34212;51.018;13.586;2023-02-20T03:55:07;98324.31;;;6.37;95.79
43155;BME280;34212;51.018;13.586;2023-02-20T04:00:12;98318.31;;;6.35;96.14
43155;BME280;34212;51.018;13.586;2023-02-20T04:05:22;98314.72;;;6.36;96.10
43155;BME280;34212;51.018;13.586;2023-02-20T04:10:32;98319.03;;;6.37;96.10
43155;BME280;34212;51.018;13.586;2023-02-20T04:15:37;98312.72;;;6.38;95.80
43155;BME280;34212;51.018;13.586;2023-02-20T04:20:39;98290.72;;;6.38;95.85
43155;BME280;34212;51.018;13.586;2023-02-20T04:26:00;98287.94;;;6.39;95.96
43155;BME280;34212;51.018;13.586;2023-02-20T04:31:05;98285.97;;;6.41;95.71
43155;BME280;34212;51.018;13.586;2023-02-20T04:36:10;98286.13;;;6.40;95.80
43155;BME280;34212;51.018;13.586;2023-02-20T04:41:12;98274.41;;;6.42;95.50
43155;BME280;34212;51.018;13.586;2023-02-20T04:46:15;98288.19;;;6.46;95.98
43155;BME280;34212;51.018;13.586;2023-02-20T04:51:18;98300.47;;;6.47;96.12
43155;BME280;34212;51.018;13.586;2023-02-20T04:56:19;98282.47;;;6.51;96.04
43155;BME280;34212;51.018;13.586;2023-02-20T05:01:21;98292.94;;;6.52;96.13
43155;BME280;34212;51.018;13.586;2023-02-20T05:06:22;98290.41;;;6.51;96.22
43155;BME280;34212;51.018;13.586;2023-02-20T05:11:24;98267.25;;;6.53;95.93
43155;BME280;34212;51.018;13.586;2023-02-20T05:16:25;98272.28;;;6.56;96.23
43155;BME280;34212;51.018;13.586;2023-02-20T05:21:27;98278.94;;;6.60;96.02
43155;BME280;34212;51.018;13.586;2023-02-20T05:26:48;98262.09;;;6.61;95.93
43155;BME280;34212;51.018;13.586;2023-02-20T05:31:50;98242.97;;;6.67;95.95
43155;BME280;34212;51.018;13.586;2023-02-20T05:36:52;98225.09;;;6.69;95.86
43155;BME280;34212;51.018;13.586;2023-02-20T05:41:54;98224.13;;;6.70;96.16
43155;BME280;34212;51.018;13.586;2023-02-20T05:46:55;98210.00;;;6.69;94.99
43155;BME280;34212;51.018;13.586;2023-02-20T05:51:57;98202.50;;;6.65;95.11
43155;BME280;34212;51.018;13.586;2023-02-20T05:56:58;98202.63;;;6.63;95.26
43155;BME280;34212;51.018;13.586;2023-02-20T06:02:02;98203.34;;;6.65;95.40
43155;BME280;34212;51.018;13.586;2023-02-20T06:07:07;98211.16;;;6.67;94.92
43155;BME280;34212;51.018;13.586;2023-02-20T06:12:11;98207.53;;;6.68;94.90
43155;BME280;34212;51.018;13.586;2023-02-20T06:17:12;98221.59;;;6.68;94.77
43155;BME280;34212;51.018;13.586;2023-02-20T06:22:15;98211.84;;;6.69;94.69
43155;BME280;34212;51.018;13.586;2023-02-20T06:27:17;98207.22;;;6.71;95.80
43155;BME280;34212;51.018;13.586;2023-02-20T06:32:18;98200.81;;;6.74;95.19
43155;BME280;34212;51.018;13.586;2023-02-20T06:37:20;98196.47;;;6.72;94.61
43155;BME280;34212;51.018;13.586;2023-02-20T06:42:21;98207.22;;;6.71;94.31
43155;BME280;34212;51.018;13.586;2023-02-20T06:47:23;98219.38;;;6.74;94.72
43155;BME280;34212;51.018;13.586;2023-02-20T06:52:24;98189.09;;;6.76;94.47
43155;BME280;34212;51.018;13.586;2023-02-20T06:57:26;98200.81;;;6.74;93.61
43155;BME280;34212;51.018;13.586;2023-02-20T07:02:27;98198.00;;;6.75;94.18
43155;BME280;34212;51.018;13.586;2023-02-20T07:07:29;98190.75;;;6.77;93.57
43155;BME280;34212;51.018;13.586;2023-02-20T07:12:31;98186.13;;;6.79;93.27
43155;BME280;34212;51.018;13.586;2023-02-20T07:17:33;98201.47;;;6.85;93.43
43155;BME280;34212;51.018;13.586;2023-02-20T07:22:34;98193.16;;;6.98;93.33
43155;BME280;34212;51.018;13.586;2023-02-20T07:27:36;98168.78;;;7.12;93.11
43155;BME280;34212;51.018;13.586;2023-02-20T07:32:38;98164.56;;;7.20;92.21
43155;BME280;34212;51.018;13.586;2023-02-20T07:37:40;98158.78;;;7.24;91.48
43155;BME280;34212;51.018;13.586;2023-02-20T07:42:41;98154.72;;;7.30;92.00
43155;BME280;34212;51.018;13.586;2023-02-20T07:47:54;98156.59;;;7.37;91.14
43155;BME280;34212;51.018;13.586;2023-02-20T07:52:56;98173.91;;;7.42;90.77
43155;BME280;34212;51.018;13.586;2023-02-20T07:57:57;98133.81;;;7.45;90.46
43155;BME280;34212;51.018;13.586;2023-02-20T08:02:59;98143.94;;;7.49;90.18
43155;BME280;34212;51.018;13.586;2023-02-20T08:08:01;98174.66;;;7.52;90.15
43155;BME280;34212;51.018;13.586;2023-02-20T08:13:03;98159.56;;;7.52;89.53
43155;BME280;34212;51.018;13.586;2023-02-20T08:18:04;98103.13;;;7.50;90.30
43155;BME280;34212;51.018;13.586;2023-02-20T08:23:20;98097.31;;;7.47;90.30
43155;BME280;34212;51.018;13.586;2023-02-20T08:28:22;98111.78;;;7.52;89.48
43155;BME280;34212;51.018;13.586;2023-02-20T08:33:24;98119.28;;;7.57;89.97
43155;BME280;34212;51.018;13.586;2023-02-20T08:43:28;98131.16;;;7.89;90.26
43155;BME280;34212;51.018;13.586;2023-02-20T08:48:30;98068.28;;;7.97;89.30
43155;BME280;34212;51.018;13.586;2023-02-20T08:53:33;98096.75;;;8.05;89.02
43155;BME280;34212;51.018;13.586;2023-02-20T08:58:34;98093.50;;;8.19;89.78
43155;BME280;34212;51.018;13.586;2023-02-20T09:03:36;98080.97;;;8.38;88.83
43155;BME280;34212;51.018;13.586;2023-02-20T09:08:41;98062.16;;;8.57;88.33
43155;BME280;34212;51.018;13.586;2023-02-20T09:13:44;98057.91;;;8.72;86.99
43155;BME280;34212;51.018;13.586;2023-02-20T09:18:47;98041.63;;;8.84;86.63
43155;BME280;34212;51.018;13.586;2023-02-20T09:23:48;98057.28;;;8.95;85.83
43155;BME280;34212;51.018;13.586;2023-02-20T09:28:50;98043.63;;;9.06;85.67
43155;BME280;34212;51.018;13.586;2023-02-20T09:33:51;98030.03;;;9.17;84.96
43155;BME280;34212;51.018;13.586;2023-02-20T09:38:53;98038.53;;;9.29;84.47
43155;BME280;34212;51.018;13.586;2023-02-20T09:44:03;98013.72;;;9.37;83.74
43155;BME280;34212;51.018;13.586;2023-02-20T09:49:15;98000.75;;;9.42;83.37
43155;BME280;34212;51.018;13.586;2023-02-20T09:54:23;98010.25;;;9.44;83.75
43155;BME280;34212;51.018;13.586;2023-02-20T09:59:49;97994.91;;;9.55;82.70
43155;BME280;34212;51.018;13.586;2023-02-20T10:04:54;98006.38;;;9.63;82.56
43155;BME280;34212;51.018;13.586;2023-02-20T10:10:30;97998.69;;;9.77;82.69
43155;BME280;34212;51.018;13.586;2023-02-20T10:16:12;98006.69;;;9.85;81.10
43155;BME280;34212;51.018;13.586;2023-02-20T10:26:40;97990.63;;;10.01;80.00
43155;BME280;34212;51.018;13.586;2023-02-20T10:31:48;97985.59;;;10.14;79.44
43155;BME280;34212;51.018;13.586;2023-02-20T10:36:56;97979.88;;;10.26;79.33
43155;BME280;34212;51.018;13.586;2023-02-20T10:52:27;97970.34;;;10.39;77.69
43155;BME280;34212;51.018;13.586;2023-02-20T11:02:40;97940.09;;;10.55;76.19
43155;BME280;34212;51.018;13.586;2023-02-20T11:07:44;97931.56;;;10.60;75.91
43155;BME280;34212;51.018;13.586;2023-02-20T11:12:55;97919.03;;;10.69;75.27
43155;BME280;34212;51.018;13.586;2023-02-20T11:18:00;97922.63;;;10.76;76.31
43155;BME280;34212;51.018;13.586;2023-02-20T11:23:03;97911.50;;;10.87;74.86
43155;BME280;34212;51.018;13.586;2023-02-20T11:28:25;97913.09;;;10.96;74.82
43155;BME280;34212;51.018;13.586;2023-02-20T11:33:29;97875.75;;;10.96;73.71
43155;BME280;34212;51.018;13.586;2023-02-20T11:38:35;97848.44;;;10.94;73.14
43155;BME280;34212;51.018;13.586;2023-02-20T11:43:40;97844.75;;;10.95;72.92
43155;BME280;34212;51.018;13.586;2023-02-20T11:49:01;97835.00;;;11.02;72.88
43155;BME280;34212;51.018;13.586;2023-02-20T11:59:40;97823.72;;;11.45;71.17
43155;BME280;34212;51.018;13.586;2023-02-20T12:05:12;97840.28;;;11.55;71.31
43155;BME280;34212;51.018;13.586;2023-02-20T12:15:31;97804.94;;;11.53;71.85
43155;BME280;34212;51.018;13.586;2023-02-20T12:20:36;97780.69;;;11.54;71.51
43155;BME280;34212;51.018;13.586;2023-02-20T12:26:04;97785.94;;;11.63;70.91
43155;BME280;34212;51.018;13.586;2023-02-20T12:31:21;97773.56;;;11.76;70.75
43155;BME280;34212;51.018;13.586;2023-02-20T12:36:31;97773.34;;;11.93;70.03
43155;BME280;34212;51.018;13.586;2023-02-20T12:41:47;97767.25;;;11.99;69.30
43155;BME280;34212;51.018;13.586;2023-02-20T12:57:25;97753.22;;;11.90;69.84
43155;BME280;34212;51.018;13.586;2023-02-20T13:02:38;97740.41;;;11.86;70.41
43155;BME280;34212;51.018;13.586;2023-02-20T13:07:51;97738.91;;;11.83;70.49
43155;BME280;34212;51.018;13.586;2023-02-20T13:12:53;97741.56;;;11.83;71.64
43155;BME280;34212;51.018;13.586;2023-02-20T13:23:36;97730.72;;;11.85;71.92
43155;BME280;34212;51.018;13.586;2023-02-20T13:28:39;97725.84;;;11.88;72.70
43155;BME280;34212;51.018;13.586;2023-02-20T13:33:48;97722.03;;;11.97;73.18
43155;BME280;34212;51.018;13.586;2023-02-20T13:54:47;97707.25;;;12.01;71.88
43155;BME280;34212;51.018;13.586;2023-02-20T13:59:49;97701.97;;;12.08;72.04
43155;BME280;34212;51.018;13.586;2023-02-20T14:04:55;97674.03;;;12.11;72.76
43155;BME280;34212;51.018;13.586;2023-02-20T14:10:03;97681.00;;;12.12;71.70
43155;BME280;34212;51.018;13.586;2023-02-20T14:15:06;97681.00;;;12.12;71.86
43155;BME280;34212;51.018;13.586;2023-02-20T14:20:21;97693.19;;;12.14;71.70
43155;BME280;34212;51.018;13.586;2023-02-20T14:25:25;97684.38;;;12.20;71.97
43155;BME280;34212;51.018;13.586;2023-02-20T14:30:30;97683.63;;;12.27;72.32
43155;BME280;34212;51.018;13.586;2023-02-20T14:35:57;97701.00;;;12.37;72.01
43155;BME280;34212;51.018;13.586;2023-02-20T14:41:18;97684.75;;;12.39;71.64
43155;BME280;34212;51.018;13.586;2023-02-20T14:46:23;97700.47;;;12.27;71.82
43155;BME280;34212;51.018;13.586;2023-02-20T14:51:25;97712.72;;;12.15;72.28
43155;BME280;34212;51.018;13.586;2023-02-20T14:56:26;97720.88;;;12.07;71.18
43155;BME280;34212;51.018;13.586;2023-02-20T15:01:39;97739.16;;;12.03;71.30
43155;BME280;34212;51.018;13.586;2023-02-20T15:06:43;97704.78;;;12.00;71.55
43155;BME280;34212;51.018;13.586;2023-02-20T15:11:50;97708.00;;;11.95;72.00
43155;BME280;34212;51.018;13.586;2023-02-20T15:17:19;97724.19;;;11.87;72.73
43155;BME280;34212;51.018;13.586;2023-02-20T15:22:35;97707.84;;;11.82;72.51
43155;BME280;34212;51.018;13.586;2023-02-20T15:27:37;97727.31;;;11.76;72.74
43155;BME280;34212;51.018;13.586;2023-02-20T15:32:41;97733.25;;;11.71;72.97
43155;BME280;34212;51.018;13.586;2023-02-20T15:37:43;97729.09;;;11.69;72.72
43155;BME280;34212;51.018;13.586;2023-02-20T15:42:51;97736.28;;;11.68;73.26
43155;BME280;34212;51.018;13.586;2023-02-20T15:47:57;97730.47;;;11.65;73.22
43155;BME280;34212;51.018;13.586;2023-02-20T15:53:00;97727.34;;;11.61;73.49
43155;BME280;34212;51.018;13.586;2023-02-20T15:58:09;97736.75;;;11.57;73.53
43155;BME280;34212;51.018;13.586;2023-02-20T16:03:26;97732.19;;;11.51;73.87
43155;BME280;34212;51.018;13.586;2023-02-20T16:08:30;97742.41;;;11.47;74.21
43155;BME280;34212;51.018;13.586;2023-02-20T16:13:35;97741.13;;;11.43;74.57
43155;BME280;34212;51.018;13.586;2023-02-20T16:18:38;97746.19;;;11.38;74.72
43155;BME280;34212;51.018;13.586;2023-02-20T16:23:39;97743.06;;;11.35;75.13
43155;BME280;34212;51.018;13.586;2023-02-20T16:28:45;97739.09;;;11.30;75.20
43155;BME280;34212;51.018;13.586;2023-02-20T16:33:47;97749.97;;;11.29;75.42
43155;BME280;34212;51.018;13.586;2023-02-20T16:38:49;97751.00;;;11.28;75.75
43155;BME280;34212;51.018;13.586;2023-02-20T16:43:51;97752.00;;;11.27;75.83
43155;BME280;34212;51.018;13.586;2023-02-20T16:48:52;97738.03;;;11.25;76.10
43155;BME280;34212;51.018;13.586;2023-02-20T16:53:54;97740.88;;;11.23;76.27
43155;BME280;34212;51.018;13.586;2023-02-20T16:58:55;97738.41;;;11.22;76.20
43155;BME280;34212;51.018;13.586;2023-02-20T17:03:58;97748.06;;;11.23;76.09
43155;BME280;34212;51.018;13.586;2023-02-20T17:09:00;97737.16;;;11.24;75.68
43155;BME280;34212;51.018;13.586;2023-02-20T17:14:03;97761.47;;;11.29;77.16
43155;BME280;34212;51.018;13.586;2023-02-20T17:19:06;97766.44;;;11.32;75.57
43155;BME280;34212;51.018;13.586;2023-02-20T17:24:09;97770.22;;;11.38;75.51
43155;BME280;34212;51.018;13.586;2023-02-20T17:29:12;97789.19;;;11.43;74.73
43155;BME280;34212;51.018;13.586;2023-02-20T17:34:14;97783.09;;;11.49;74.16
43155;BME280;34212;51.018;13.586;2023-02-20T17:39:19;97775.34;;;11.54;73.36
43155;BME280;34212;51.018;13.586;2023-02-20T17:44:26;97803.34;;;11.59;73.05
43155;BME280;34212;51.018;13.586;2023-02-20T17:49:30;97791.00;;;11.57;73.39
43155;BME280;34212;51.018;13.586;2023-02-20T17:54:32;97809.06;;;11.55;73.44
43155;BME280;34212;51.018;13.586;2023-02-20T17:59:38;97804.94;;;11.53;73.36
43155;BME280;34212;51.018;13.586;2023-02-20T18:04:41;97810.00;;;11.48;73.65
43155;BME280;34212;51.018;13.586;2023-02-20T18:09:45;97808.34;;;11.47;73.41
43155;BME280;34212;51.018;13.586;2023-02-20T18:14:47;97839.28;;;11.41;73.41
43155;BME280;34212;51.018;13.586;2023-02-20T18:19:49;97820.97;;;11.38;73.79
43155;BME280;34212;51.018;13.586;2023-02-20T18:24:50;97838.53;;;11.32;73.90
43155;BME280;34212;51.018;13.586;2023-02-20T18:29:53;97846.00;;;11.22;75.79
43155;BME280;34212;51.018;13.586;2023-02-20T18:34:54;97864.91;;;10.98;77.12
43155;BME280;34212;51.018;13.586;2023-02-20T18:39:56;97881.53;;;10.62;78.10
43155;BME280;34212;51.018;13.586;2023-02-20T18:44:57;97869.47;;;10.28;78.68
43155;BME280;34212;51.018;13.586;2023-02-20T18:49:59;97852.22;;;10.08;79.56
43155;BME280;34212;51.018;13.586;2023-02-20T18:55:00;97844.56;;;10.05;80.13
43155;BME280;34212;51.018;13.586;2023-02-20T19:00:03;97841.75;;;10.06;80.32
43155;BME280;34212;51.018;13.586;2023-02-20T19:05:04;97838.06;;;10.07;79.84
43155;BME280;34212;51.018;13.586;2023-02-20T19:10:07;97827.94;;;10.03;80.29
43155;BME280;34212;51.018;13.586;2023-02-20T19:15:08;97820.47;;;9.98;80.74
43155;BME280;34212;51.018;13.586;2023-02-20T19:20:25;97820.94;;;10.02;81.30
43155;BME280;34212;51.018;13.586;2023-02-20T19:25:29;97821.25;;;10.07;81.91
43155;BME280;34212;51.018;13.586;2023-02-20T19:30:31;97809.91;;;10.13;82.18
43155;BME280;34212;51.018;13.586;2023-02-20T19:35:32;97830.88;;;10.16;81.58
43155;BME280;34212;51.018;13.586;2023-02-20T19:40:34;97830.19;;;10.14;82.08
43155;BME280;34212;51.018;13.586;2023-02-20T19:45:35;97811.78;;;10.04;82.52
43155;BME280;34212;51.018;13.586;2023-02-20T19:50:37;97800.66;;;10.01;82.35
43155;BME280;34212;51.018;13.586;2023-02-20T19:55:39;97793.47;;;10.01;82.38
43155;BME280;34212;51.018;13.586;2023-02-20T20:00:40;97780.50;;;9.98;82.31
43155;BME280;34212;51.018;13.586;2023-02-20T20:05:42;97805.84;;;9.94;82.59
43155;BME280;34212;51.018;13.586;2023-02-20T20:10:44;97781.69;;;9.95;82.92
43155;BME280;34212;51.018;13.586;2023-02-20T20:15:45;97786.66;;;9.99;82.62
43155;BME280;34212;51.018;13.586;2023-02-20T20:20:47;97775.50;;;10.03;82.79
43155;BME280;34212;51.018;13.586;2023-02-20T20:25:49;97793.13;;;10.04;82.05
43155;BME280;34212;51.018;13.586;2023-02-20T20:30:51;97795.13;;;10.02;81.92
43155;BME280;34212;51.018;13.586;2023-02-20T20:35:52;97795.13;;;10.02;81.76
43155;BME280;34212;51.018;13.586;2023-02-20T20:40:54;97790.50;;;9.96;81.62
43155;BME280;34212;51.018;13.586;2023-02-20T20:45:56;97791.22;;;9.90;81.41
43155;BME280;34212;51.018;13.586;2023-02-20T20:50:58;97797.25;;;9.84;81.65
43155;BME280;34212;51.018;13.586;2023-02-20T20:56:00;97790.97;;;9.77;82.24
43155;BME280;34212;51.018;13.586;2023-02-20T21:01:01;97783.66;;;9.70;82.27
43155;BME280;34212;51.018;13.586;2023-02-20T21:06:03;97788.53;;;9.67;82.75
43155;BME280;34212;51.018;13.586;2023-02-20T21:11:05;97782.03;;;9.69;82.22
43155;BME280;34212;51.018;13.586;2023-02-20T21:16:06;97780.66;;;9.74;82.02
43155;BME280;34212;51.018;13.586;2023-02-20T21:21:08;97773.34;;;9.76;82.37
43155;BME280;34212;51.018;13.586;2023-02-20T21:26:10;97779.13;;;9.79;81.78
43155;BME280;34212;51.018;13.586;2023-02-20T21:31:12;97785.75;;;9.83;81.87
43155;BME280;34212;51.018;13.586;2023-02-20T21:36:15;97778.44;;;9.85;81.47
43155;BME280;34212;51.018;13.586;2023-02-20T21:41:21;97759.25;;;9.90;81.51
43155;BME280;34212;51.018;13.586;2023-02-20T21:46:41;97769.91;;;9.90;81.22
43155;BME280;34212;51.018;13.586;2023-02-20T21:51:43;97767.91;;;9.92;80.69
43155;BME280;34212;51.018;13.586;2023-02-20T21:56:44;97779.38;;;9.92;80.76
43155;BME280;34212;51.018;13.586;2023-02-20T22:01:46;97769.53;;;9.93;80.85
43155;BME280;34212;51.018;13.586;2023-02-20T22:06:48;97773.56;;;9.89;80.42
43155;BME280;34212;51.018;13.586;2023-02-20T22:12:08;97770.09;;;9.88;80.14
43155;BME280;34212;51.018;13.586;2023-02-20T22:17:28;97761.28;;;9.88;80.67
43155;BME280;34212;51.018;13.586;2023-02-20T22:22:48;97776.59;;;9.86;80.29
43155;BME280;34212;51.018;13.586;2023-02-20T22:28:09;97760.78;;;9.84;80.08
43155;BME280;34212;51.018;13.586;2023-02-20T22:33:29;97763.44;;;9.84;80.75
43155;BME280;34212;51.018;13.586;2023-02-20T22:38:50;97750.13;;;9.84;80.76
43155;BME280;34212;51.018;13.586;2023-02-20T22:44:10;97760.13;;;9.82;79.89
43155;BME280;34212;51.018;13.586;2023-02-20T22:49:30;97750.50;;;9.81;79.91
43155;BME280;34212;51.018;13.586;2023-02-20T22:54:50;97755.81;;;9.81;80.19
43155;BME280;34212;51.018;13.586;2023-02-20T23:00:12;97741.66;;;9.81;79.06
43155;BME280;34212;51.018;13.586;2023-02-20T23:05:31;97735.03;;;9.77;79.08
43155;BME280;34212;51.018;13.586;2023-02-20T23:10:51;97727.03;;;9.77;79.16
43155;BME280;34212;51.018;13.586;2023-02-20T23:16:17;97759.00;;;9.77;79.33
43155;BME280;34212;51.018;13.586;2023-02-20T23:21:37;97733.72;;;9.73;78.92
43155;BME280;34212;51.018;13.586;2023-02-20T23:26:57;97752.72;;;9.69;79.60
43155;BME280;34212;51.018;13.586;2023-02-20T23:32:16;97755.06;;;9.64;79.95
43155;BME280;34212;51.018;13.586;2023-02-20T23:37:36;97749.94;;;9.63;79.02
43155;BME280;34212;51.018;13.586;2023-02-20T23:42:57;97752.09;;;9.59;79.37
43155;BME280;34212;51.018;13.586;2023-02-20T23:48:16;97715.00;;;9.58;79.78
43155;BME280;34212;51.018;13.586;2023-02-20T23:53:37;97722.19;;;9.57;79.96
43155;BME280;34212;51.018;13.586;2023-02-20T23:58:58;97717.84;;;9.56;80.06
